Time;durP1;ratioP1;P1;durP2;ratioP2;P2;SDS_P1;SDS_P2;PMS_P1;PMS_P2;Temp;Humidity;BMP_temperature;BMP_pressure;BME280_temperature;BME280_humidity;BME280_pressure;Samples;Min_cycle;Max_cycle;Signal;HPM_P1;HPM_P2
2023/07/30 00:01:34;;;;;;;19.65;2.78;;;17.00;99.90;;;;;;4038625;29;20181;-94
2023/07/30 00:03:35;;;;;;;21.15;3.08;;;17.10;99.90;;;;;;4053768;29;20283;-94
2023/07/30 00:05:38;;;;;;;14.60;2.70;;;17.20;99.90;;;;;;4038955;29;20209;-95
2023/07/30 00:07:39;;;;;;;11.32;2.58;;;17.10;99.90;;;;;;4054466;29;20196;-95
2023/07/30 00:09:48;;;;;;;13.55;2.60;;;17.10;99.90;;;;;;4055517;29;20193;-95
2023/07/30 00:11:49;;;;;;;17.95;2.80;;;17.00;99.90;;;;;;4053937;29;20188;-95
2023/07/30 00:13:50;;;;;;;16.73;2.85;;;17.10;99.90;;;;;;4038393;29;20226;-95
2023/07/30 00:15:55;;;;;;;9.77;2.72;;;17.10;99.90;;;;;;4053605;29;20201;-95
2023/07/30 00:17:58;;;;;;;14.30;2.63;;;17.20;99.90;;;;;;4038543;29;20186;-94
2023/07/30 00:19:59;;;;;;;14.20;2.58;;;17.20;99.90;;;;;;4069421;29;20216;-95
2023/07/30 00:21:59;;;;;;;17.48;2.33;;;17.20;99.90;;;;;;4038144;29;20186;-94
2023/07/30 00:24:00;;;;;;;17.67;2.90;;;17.50;99.90;;;;;;4069276;29;20673;-94
2023/07/30 00:26:01;;;;;;;24.27;3.47;;;17.20;99.90;;;;;;4038215;29;20663;-95
2023/07/30 00:28:05;;;;;;;20.67;3.13;;;17.00;99.90;;;;;;4069128;29;20192;-94
2023/07/30 00:30:09;;;;;;;15.50;3.10;;;16.90;99.90;;;;;;4038080;29;20197;-94
2023/07/30 00:32:11;;;;;;;20.60;3.28;;;16.80;99.90;;;;;;4069327;29;20192;-94
2023/07/30 00:34:11;;;;;;;18.85;3.45;;;16.70;99.90;;;;;;4038192;29;20189;-94
2023/07/30 00:36:20;;;;;;;17.52;3.00;;;16.90;99.90;;;;;;4053937;29;20281;-94
2023/07/30 00:38:21;;;;;;;14.25;2.55;;;16.80;99.90;;;;;;4023504;29;20687;-95
2023/07/30 00:40:24;;;;;;;18.50;2.92;;;16.70;99.90;;;;;;4037899;29;20210;-96
2023/07/30 00:42:25;;;;;;;16.02;2.63;;;16.70;99.90;;;;;;4022918;29;20269;-95
2023/07/30 00:44:26;;;;;;;15.52;2.78;;;16.60;99.90;;;;;;4037916;29;20221;-94
2023/07/30 00:46:30;;;;;;;17.17;3.17;;;16.60;99.90;;;;;;4022220;29;20672;-94
2023/07/30 00:48:32;;;;;;;14.00;2.60;;;16.70;99.90;;;;;;4037785;29;20266;-94
2023/07/30 00:50:33;;;;;;;17.83;2.80;;;16.80;99.90;;;;;;4022616;29;20187;-94
2023/07/30 00:52:35;;;;;;;19.77;3.47;;;16.80;99.90;;;;;;4053441;29;20184;-95
2023/07/30 00:54:42;;;;;;;19.80;2.75;;;17.10;99.90;;;;;;4037836;29;20648;-94
2023/07/30 00:56:53;;;;;;;12.68;2.70;;;17.20;99.90;;;;;;4068717;29;20235;-94
2023/07/30 00:58:55;;;;;;;20.60;2.95;;;17.20;99.90;;;;;;4053232;29;20209;-94
2023/07/30 01:00:56;;;;;;;21.65;3.40;;;17.30;99.90;;;;;;4037899;29;20221;-93
2023/07/30 01:02:57;;;;;;;18.63;2.28;;;17.40;99.90;;;;;;4070138;28;20347;-93
2023/07/30 01:05:00;;;;;;;10.55;2.20;;;17.20;99.90;;;;;;4053069;29;20193;-94
2023/07/30 01:07:01;;;;;;;12.43;2.33;;;17.20;99.90;;;;;;4037445;29;20651;-95
2023/07/30 01:09:03;;;;;;;19.95;3.03;;;17.20;99.90;;;;;;4068195;29;20211;-95
2023/07/30 01:11:05;;;;;;;19.10;2.72;;;17.30;99.90;;;;;;4037563;29;20182;-94
2023/07/30 01:13:09;;;;;;;18.75;3.25;;;17.30;99.90;;;;;;4053100;29;20284;-95
2023/07/30 01:15:11;;;;;;;21.52;2.75;;;17.40;99.90;;;;;;4037665;29;20189;-94
2023/07/30 01:17:12;;;;;;;13.77;2.53;;;17.40;99.90;;;;;;4037322;29;20269;-96
2023/07/30 01:19:13;;;;;;;18.15;3.03;;;17.50;99.90;;;;;;4039344;29;20269;-94
2023/07/30 01:21:14;;;;;;;14.23;2.22;;;17.40;99.90;;;;;;4052946;29;20184;-95
2023/07/30 01:23:14;;;;;;;17.63;2.92;;;17.50;99.90;;;;;;4038966;29;20681;-93
2023/07/30 01:25:18;;;;;;;18.50;2.72;;;17.40;99.90;;;;;;4054745;29;20196;-95
2023/07/30 01:27:27;;;;;;;18.75;2.75;;;17.30;99.90;;;;;;4053784;29;20208;-94
2023/07/30 01:29:40;;;;;;;18.65;2.90;;;17.50;99.90;;;;;;4037600;29;20268;-93
2023/07/30 01:31:43;;;;;;;13.80;2.38;;;17.40;99.90;;;;;;4037693;29;20639;-94
2023/07/30 01:33:50;;;;;;;22.80;3.13;;;17.60;99.90;;;;;;4038500;29;20280;-94
2023/07/30 01:35:51;;;;;;;14.80;3.03;;;17.80;99.90;;;;;;4022121;29;20263;-94
2023/07/30 01:37:53;;;;;;;14.82;3.30;;;17.50;99.90;;;;;;4037528;29;20201;-94
2023/07/30 01:39:55;;;;;;;18.85;2.78;;;17.30;99.90;;;;;;4022266;29;20198;-94
2023/07/30 01:41:58;;;;;;;20.80;2.50;;;17.20;99.90;;;;;;4052629;29;20643;-95
2023/07/30 01:44:00;;;;;;;11.43;2.50;;;17.40;99.90;;;;;;4021834;29;20229;-95
2023/07/30 01:46:00;;;;;;;20.77;2.50;;;17.40;99.90;;;;;;4021786;29;20605;-95
2023/07/30 01:48:01;;;;;;;19.75;2.83;;;17.20;99.90;;;;;;4037009;29;20190;-95
2023/07/30 01:50:02;;;;;;;18.55;2.65;;;17.20;99.90;;;;;;4023676;29;20580;-95
2023/07/30 01:52:04;;;;;;;16.27;2.25;;;17.20;99.90;;;;;;4037217;29;20185;-95
2023/07/30 01:54:05;;;;;;;16.17;2.30;;;17.30;99.90;;;;;;4023306;29;20205;-94
2023/07/30 01:56:05;;;;;;;20.33;2.80;;;17.40;99.90;;;;;;4023585;29;20174;-94
2023/07/30 01:58:06;;;;;;;14.02;2.38;;;17.50;99.90;;;;;;4037945;29;20186;-94
2023/07/30 02:00:08;;;;;;;20.70;2.97;;;17.40;99.90;;;;;;4023374;29;20196;-94
2023/07/30 02:02:14;;;;;;;15.60;2.63;;;17.50;99.90;;;;;;4068187;29;20198;-95
2023/07/30 02:04:22;;;;;;;20.77;2.85;;;17.40;99.90;;;;;;4052792;29;20244;-94
2023/07/30 02:06:26;;;;;;;18.55;2.40;;;17.40;99.90;;;;;;4037735;29;20189;-95
2023/07/30 02:08:27;;;;;;;16.60;2.95;;;17.10;99.90;;;;;;4053035;29;20288;-95
2023/07/30 02:10:29;;;;;;;17.13;2.88;;;17.20;99.90;;;;;;4037512;29;20656;-95
2023/07/30 02:12:29;;;;;;;15.88;2.88;;;17.20;99.90;;;;;;4037278;29;20268;-94
2023/07/30 02:14:30;;;;;;;14.77;2.30;;;17.20;99.90;;;;;;4054544;29;20718;-95
2023/07/30 02:16:35;;;;;;;13.25;2.28;;;17.30;99.90;;;;;;4039166;29;20198;-94
2023/07/30 02:18:36;;;;;;;18.90;2.80;;;17.50;99.90;;;;;;4052525;29;20193;-95
2023/07/30 02:20:40;;;;;;;22.15;2.75;;;17.40;99.90;;;;;;4037643;29;20201;-94
2023/07/30 02:22:41;;;;;;;21.90;3.15;;;17.30;99.90;;;;;;4040987;29;20186;-95
2023/07/30 02:24:44;;;;;;;23.20;3.50;;;17.20;99.90;;;;;;4024531;29;20281;-95
2023/07/30 02:26:45;;;;;;;22.73;2.88;;;17.20;99.90;;;;;;4041811;29;20189;-95
2023/07/30 02:28:46;;;;;;;22.00;2.90;;;17.30;99.90;;;;;;4024625;29;20201;-95
2023/07/30 02:30:47;;;;;;;22.98;2.70;;;17.30;99.90;;;;;;4024392;29;20681;-94
2023/07/30 02:32:48;;;;;;;19.13;2.50;;;17.30;99.90;;;;;;4024370;29;20215;-95
2023/07/30 02:34:51;;;;;;;19.55;3.20;;;17.10;99.90;;;;;;4039987;29;20245;-94
2023/07/30 02:36:52;;;;;;;20.17;2.60;;;17.20;99.90;;;;;;4039701;29;20182;-95
2023/07/30 02:38:53;;;;;;;21.33;3.28;;;17.10;99.90;;;;;;4056142;29;20197;-95
2023/07/30 02:40:54;;;;;;;18.73;2.80;;;17.10;99.90;;;;;;4039998;29;20177;-94
2023/07/30 02:42:55;;;;;;;21.48;3.05;;;17.10;99.90;;;;;;4039687;29;20197;-94
2023/07/30 02:44:55;;;;;;;20.17;2.38;;;17.00;99.90;;;;;;4042866;29;20193;-95
2023/07/30 02:46:59;;;;;;;19.88;2.70;;;16.90;99.90;;;;;;4039808;29;20205;-95
2023/07/30 02:49:05;;;;;;;18.90;2.55;;;16.90;99.90;;;;;;4055093;29;20212;-96
2023/07/30 02:51:06;;;;;;;23.00;2.63;;;16.80;99.90;;;;;;4039547;29;20194;-95
2023/07/30 02:53:06;;;;;;;17.23;2.28;;;16.90;99.90;;;;;;4039439;29;20658;-94
2023/07/30 02:55:08;;;;;;;21.17;2.95;;;17.10;99.90;;;;;;4055002;29;20699;-96
2023/07/30 02:57:10;;;;;;;21.10;2.58;;;17.10;99.90;;;;;;4040356;29;20197;-94
2023/07/30 02:59:10;;;;;;;22.77;2.63;;;17.20;99.90;;;;;;4039173;29;20595;-94
2023/07/30 03:01:11;;;;;;;15.88;2.60;;;17.10;99.90;;;;;;4039430;29;20182;-95
2023/07/30 03:03:16;;;;;;;21.90;2.90;;;17.20;99.90;;;;;;4054737;29;20321;-95
2023/07/30 03:05:16;;;;;;;25.80;2.72;;;17.20;99.90;;;;;;4039263;29;20229;-94
2023/07/30 03:07:19;;;;;;;21.13;2.70;;;17.10;99.90;;;;;;4054845;29;20189;-95
2023/07/30 03:09:20;;;;;;;19.77;2.88;;;17.00;99.90;;;;;;4039206;29;20254;-94
2023/07/30 03:11:22;;;;;;;21.55;3.20;;;17.00;99.90;;;;;;4070433;29;20614;-95
2023/07/30 03:13:23;;;;;;;27.92;2.90;;;16.90;99.90;;;;;;4023873;29;20215;-94
2023/07/30 03:15:24;;;;;;;25.92;3.20;;;16.90;99.90;;;;;;4055545;29;20195;-94
2023/07/30 03:17:25;;;;;;;19.60;2.70;;;16.90;99.90;;;;;;4039361;29;20218;-95
2023/07/30 03:19:26;;;;;;;19.25;2.55;;;17.00;99.90;;;;;;4038944;29;20249;-95
2023/07/30 03:21:27;;;;;;;18.80;2.50;;;16.90;99.90;;;;;;4039315;29;20185;-95
2023/07/30 03:23:28;;;;;;;27.60;3.78;;;16.90;99.90;;;;;;4039059;29;20232;-94
2023/07/30 03:25:30;;;;;;;15.95;2.45;;;16.90;99.90;;;;;;4054624;29;20583;-95
2023/07/30 03:27:31;;;;;;;20.95;2.60;;;16.90;99.90;;;;;;4039124;29;20230;-95
2023/07/30 03:29:32;;;;;;;20.48;2.60;;;16.80;99.90;;;;;;4040360;29;20228;-94
2023/07/30 03:31:33;;;;;;;30.65;3.70;;;16.80;99.90;;;;;;4054603;29;20220;-94
2023/07/30 03:33:34;;;;;;;20.55;2.50;;;16.80;99.90;;;;;;4038115;29;20540;-94
2023/07/30 03:35:35;;;;;;;24.92;3.20;;;16.90;99.90;;;;;;4040836;29;20225;-94
2023/07/30 03:37:37;;;;;;;24.42;3.30;;;17.10;99.90;;;;;;4054520;29;20188;-94
2023/07/30 03:39:39;;;;;;;27.20;3.58;;;17.00;99.90;;;;;;4038967;29;20209;-94
2023/07/30 03:41:43;;;;;;;15.68;2.38;;;17.00;99.90;;;;;;4039009;29;20213;-94
2023/07/30 03:43:50;;;;;;;17.23;2.88;;;16.90;99.90;;;;;;4038946;29;20217;-94
2023/07/30 03:45:53;;;;;;;25.60;3.20;;;16.90;99.90;;;;;;4054236;29;20184;-95
2023/07/30 03:47:54;;;;;;;24.27;2.80;;;16.80;99.90;;;;;;4054279;29;20279;-93
2023/07/30 03:49:55;;;;;;;21.17;2.67;;;16.80;99.90;;;;;;4038496;29;20198;-94
2023/07/30 03:51:55;;;;;;;24.65;2.42;;;16.70;99.90;;;;;;4038550;29;20182;-95
2023/07/30 03:53:58;;;;;;;18.50;2.45;;;16.70;99.90;;;;;;4038507;29;20185;-95
2023/07/30 03:55:59;;;;;;;22.35;3.47;;;16.60;99.90;;;;;;4054074;29;20185;-95
2023/07/30 03:58:01;;;;;;;25.77;3.30;;;16.80;99.90;;;;;;4038453;29;20226;-95
2023/07/30 04:00:03;;;;;;;18.65;2.60;;;16.70;99.90;;;;;;4054942;29;20694;-94
2023/07/30 04:02:07;;;;;;;29.05;3.15;;;16.70;99.90;;;;;;4038396;29;20269;-93
2023/07/30 04:04:08;;;;;;;20.48;2.53;;;16.70;99.90;;;;;;4038499;29;20293;-94
2023/07/30 04:06:09;;;;;;;22.58;2.70;;;16.70;99.90;;;;;;4069695;29;20177;-94
2023/07/30 04:08:10;;;;;;;24.10;3.08;;;16.70;99.90;;;;;;4038239;29;20193;-94
2023/07/30 04:10:11;;;;;;;30.25;3.33;;;17.00;99.90;;;;;;4038329;29;20571;-95
2023/07/30 04:12:11;;;;;;;26.20;3.20;;;17.10;99.90;;;;;;4038755;29;20190;-95
2023/07/30 04:14:12;;;;;;;29.42;3.55;;;17.10;99.90;;;;;;4053632;29;20190;-95
2023/07/30 04:16:13;;;;;;;22.60;3.38;;;17.00;99.90;;;;;;4053891;29;20279;-94
2023/07/30 04:18:19;;;;;;;27.55;3.35;;;17.00;99.90;;;;;;4038362;29;20190;-95
2023/07/30 04:20:24;;;;;;;22.98;2.67;;;17.00;99.90;;;;;;4053589;29;20223;-96
2023/07/30 04:22:25;;;;;;;20.05;2.65;;;16.90;99.90;;;;;;4038315;29;20193;-95
2023/07/30 04:24:26;;;;;;;18.35;2.85;;;16.90;99.90;;;;;;4070861;29;20747;-95
2023/07/30 04:26:31;;;;;;;27.13;3.28;;;17.10;99.90;;;;;;4054855;29;20184;-95
2023/07/30 04:28:32;;;;;;;23.63;2.92;;;17.10;99.90;;;;;;4024237;29;20186;-95
2023/07/30 04:30:33;;;;;;;31.65;3.30;;;16.80;99.90;;;;;;4022678;29;20535;-95
2023/07/30 04:32:36;;;;;;;25.42;3.30;;;16.70;99.90;;;;;;4023911;29;20202;-94
2023/07/30 04:34:37;;;;;;;22.15;3.35;;;16.60;99.90;;;;;;4023378;29;20190;-95
2023/07/30 04:36:38;;;;;;;22.27;2.85;;;16.70;99.90;;;;;;4070111;29;20203;-95
2023/07/30 04:38:44;;;;;;;16.50;2.70;;;16.60;99.90;;;;;;4038005;29;20524;-95
2023/07/30 04:40:49;;;;;;;28.63;3.42;;;16.70;99.90;;;;;;4038056;29;20196;-95
2023/07/30 04:42:50;;;;;;;25.52;4.15;;;16.70;99.90;;;;;;4053574;29;20228;-96
2023/07/30 04:44:51;;;;;;;22.10;3.40;;;16.70;99.90;;;;;;4037937;29;20705;-95
2023/07/30 04:46:52;;;;;;;21.55;3.67;;;16.70;99.90;;;;;;4037984;29;20185;-94
2023/07/30 04:48:55;;;;;;;18.05;2.75;;;16.80;99.90;;;;;;4054864;29;20205;-94
2023/07/30 04:50:56;;;;;;;23.08;3.00;;;16.80;99.90;;;;;;4037705;29;20174;-94
2023/07/30 04:52:56;;;;;;;21.00;3.10;;;16.80;99.90;;;;;;4037893;29;20194;-94
2023/07/30 04:54:57;;;;;;;24.40;3.35;;;16.90;99.90;;;;;;4039212;29;20228;-94
2023/07/30 04:57:14;;;;;;;22.65;3.05;;;17.00;99.90;;;;;;4053198;29;20185;-94
2023/07/30 04:59:18;;;;;;;22.80;3.30;;;16.90;99.90;;;;;;4037491;29;20289;-93
2023/07/30 05:01:18;;;;;;;23.55;3.10;;;16.70;99.90;;;;;;4038900;29;20224;-95
2023/07/30 05:03:19;;;;;;;19.83;2.72;;;16.70;99.90;;;;;;4037679;29;20206;-94
2023/07/30 05:05:20;;;;;;;24.52;3.05;;;16.80;99.90;;;;;;4053595;29;20188;-94
2023/07/30 05:07:21;;;;;;;22.30;3.03;;;16.80;99.90;;;;;;4037754;29;20182;-94
2023/07/30 05:09:22;;;;;;;23.63;3.05;;;16.80;99.90;;;;;;4037755;29;20210;-93
2023/07/30 05:11:23;;;;;;;25.60;3.38;;;16.60;99.90;;;;;;4053006;29;20173;-93
2023/07/30 05:13:23;;;;;;;24.67;3.53;;;16.60;99.90;;;;;;4053449;29;20185;-93
2023/07/30 05:15:24;;;;;;;21.73;2.85;;;16.70;99.90;;;;;;4037811;29;20221;-93
2023/07/30 05:17:25;;;;;;;26.65;3.47;;;16.70;99.90;;;;;;4052909;29;20189;-93
2023/07/30 05:19:26;;;;;;;32.20;3.35;;;16.80;99.90;;;;;;4037596;29;20193;-93
2023/07/30 05:21:27;;;;;;;23.60;3.10;;;17.00;99.90;;;;;;4037292;29;20185;-94
2023/07/30 05:23:28;;;;;;;24.08;3.13;;;16.90;99.90;;;;;;4038268;29;20710;-92
2023/07/30 05:25:29;;;;;;;26.85;3.03;;;16.80;99.90;;;;;;4037582;29;20194;-94
2023/07/30 05:27:31;;;;;;;28.33;3.25;;;16.80;99.90;;;;;;4037507;29;20578;-94
2023/07/30 05:29:32;;;;;;;24.55;3.17;;;16.70;99.90;;;;;;4052786;29;20212;-94
2023/07/30 05:31:33;;;;;;;23.25;2.92;;;16.80;99.90;;;;;;4037563;29;20231;-94
2023/07/30 05:33:33;;;;;;;24.00;3.00;;;16.90;99.90;;;;;;4037415;29;20221;-94
2023/07/30 05:35:34;;;;;;;22.73;2.80;;;17.00;99.90;;;;;;4037431;29;20273;-94
2023/07/30 05:37:35;;;;;;;22.42;2.90;;;17.00;99.90;;;;;;4037529;29;20189;-94
2023/07/30 05:39:36;;;;;;;24.52;3.03;;;17.00;99.90;;;;;;4038090;29;20205;-94
2023/07/30 05:41:36;;;;;;;21.60;2.80;;;17.10;99.90;;;;;;4052703;29;20223;-93
2023/07/30 05:43:37;;;;;;;27.55;3.40;;;17.10;99.90;;;;;;4037336;29;20315;-93
2023/07/30 05:45:38;;;;;;;22.42;2.63;;;17.20;99.90;;;;;;4037373;29;20181;-94
2023/07/30 05:47:39;;;;;;;22.25;3.45;;;17.10;99.90;;;;;;4037511;29;20631;-93
2023/07/30 05:49:40;;;;;;;16.27;2.92;;;17.00;99.90;;;;;;4037528;29;20209;-92
2023/07/30 05:51:41;;;;;;;26.45;3.50;;;17.00;99.90;;;;;;4037674;29;20276;-94
2023/07/30 05:53:42;;;;;;;21.25;3.78;;;17.10;99.90;;;;;;4052666;29;20185;-94
2023/07/30 05:55:43;;;;;;;20.85;2.85;;;17.20;99.90;;;;;;4037836;29;20576;-92
2023/07/30 05:57:43;;;;;;;25.50;4.07;;;17.20;99.90;;;;;;4040385;29;20685;-93
2023/07/30 05:59:44;;;;;;;32.05;4.03;;;17.30;99.90;;;;;;4055445;29;20575;-94
2023/07/30 06:01:45;;;;;;;19.35;3.25;;;17.50;99.90;;;;;;4040378;29;20193;-94
2023/07/30 06:03:46;;;;;;;22.77;3.40;;;17.50;99.90;;;;;;4040058;29;20721;-95
2023/07/30 06:05:46;;;;;;;23.70;2.95;;;17.40;99.90;;;;;;4040294;29;20182;-93
2023/07/30 06:07:47;;;;;;;17.65;2.78;;;17.50;99.90;;;;;;4040303;29;20185;-94
2023/07/30 06:09:48;;;;;;;17.80;3.28;;;17.60;99.90;;;;;;4073012;29;20701;-94
2023/07/30 06:11:49;;;;;;;25.30;3.25;;;17.60;99.90;;;;;;4040149;29;20186;-95
2023/07/30 06:13:49;;;;;;;25.13;3.22;;;17.70;99.90;;;;;;4039981;29;20190;-93
2023/07/30 06:15:50;;;;;;;18.85;3.00;;;17.60;99.90;;;;;;4039897;29;20192;-94
2023/07/30 06:17:51;;;;;;;27.80;3.25;;;17.60;99.90;;;;;;4040148;29;20279;-93
2023/07/30 06:19:52;;;;;;;24.48;3.35;;;17.40;99.90;;;;;;4040049;29;20227;-94
2023/07/30 06:21:52;;;;;;;25.05;3.58;;;17.40;99.90;;;;;;4039905;29;20193;-93
2023/07/30 06:23:53;;;;;;;28.30;3.60;;;17.60;99.90;;;;;;4071206;29;20216;-95
2023/07/30 06:25:54;;;;;;;21.95;2.70;;;17.60;99.90;;;;;;4040100;29;20669;-94
2023/07/30 06:27:57;;;;;;;27.27;3.45;;;17.60;99.90;;;;;;4039783;29;20212;-94
2023/07/30 06:29:58;;;;;;;17.65;2.78;;;17.40;99.90;;;;;;4055287;29;20201;-94
2023/07/30 06:31:59;;;;;;;23.10;3.15;;;17.50;99.90;;;;;;4040088;29;20193;-95
2023/07/30 06:33:59;;;;;;;26.13;4.03;;;17.60;99.90;;;;;;4039827;29;20278;-94
2023/07/30 06:36:00;;;;;;;26.55;3.75;;;17.50;99.90;;;;;;4055568;29;20185;-94
2023/07/30 06:38:01;;;;;;;22.13;4.03;;;17.60;99.90;;;;;;4055368;29;20211;-93
2023/07/30 06:40:05;;;;;;;23.20;3.30;;;17.70;99.90;;;;;;4040100;29;20209;-93
2023/07/30 06:42:06;;;;;;;27.65;3.33;;;17.90;99.90;;;;;;4039637;29;20205;-94
2023/07/30 06:44:08;;;;;;;28.85;3.45;;;17.60;99.90;;;;;;4039802;29;20213;-94
2023/07/30 06:46:09;;;;;;;32.53;3.50;;;17.80;99.90;;;;;;4040288;29;20546;-93
2023/07/30 06:48:10;;;;;;;19.05;2.97;;;17.70;99.90;;;;;;4071958;29;20543;-95
2023/07/30 06:50:11;;;;;;;24.98;3.40;;;17.90;99.90;;;;;;4055254;29;20205;-93
2023/07/30 06:52:12;;;;;;;21.05;3.13;;;18.10;99.90;;;;;;4039608;29;20208;-93
2023/07/30 06:54:13;;;;;;;25.45;3.15;;;18.20;99.90;;;;;;4056823;29;20177;-93
2023/07/30 06:56:14;;;;;;;21.38;3.22;;;18.40;99.90;;;;;;4039948;29;20265;-94
2023/07/30 06:58:14;;;;;;;26.23;4.10;;;18.30;99.90;;;;;;4055012;29;20201;-94
2023/07/30 07:00:21;;;;;;;25.30;3.53;;;18.50;99.90;;;;;;4039398;29;20230;-93
2023/07/30 07:02:22;;;;;;;21.13;4.20;;;18.70;99.90;;;;;;4055924;29;20181;-93
2023/07/30 07:04:22;;;;;;;22.13;3.33;;;18.80;99.90;;;;;;4039296;29;20221;-95
2023/07/30 07:06:23;;;;;;;20.88;3.10;;;18.90;99.90;;;;;;4054966;29;20543;-94
2023/07/30 07:08:24;;;;;;;24.67;3.65;;;19.10;99.90;;;;;;4038246;29;20189;-93
2023/07/30 07:10:25;;;;;;;27.20;3.30;;;19.50;99.90;;;;;;4054750;29;20597;-93
2023/07/30 07:12:25;;;;;;;18.08;3.00;;;19.70;99.90;;;;;;4039302;29;20193;-93
2023/07/30 07:14:26;;;;;;;31.73;3.90;;;19.80;99.90;;;;;;4039074;29;20193;-94
2023/07/30 07:16:27;;;;;;;23.33;3.22;;;19.80;99.90;;;;;;4039736;29;20247;-94
2023/07/30 07:18:28;;;;;;;21.77;3.33;;;20.20;99.90;;;;;;4055809;29;20189;-96
2023/07/30 07:20:29;;;;;;;25.08;3.72;;;20.20;99.90;;;;;;4039319;29;20228;-93
2023/07/30 07:22:29;;;;;;;19.48;2.95;;;20.30;99.90;;;;;;4039351;29;20644;-94
2023/07/30 07:24:31;;;;;;;27.15;3.40;;;20.20;99.90;;;;;;4039325;29;20293;-94
2023/07/30 07:26:31;;;;;;;24.52;3.42;;;20.30;99.90;;;;;;4038977;29;20181;-94
2023/07/30 07:28:32;;;;;;;21.10;3.13;;;20.10;99.90;;;;;;4038846;29;20254;-93
2023/07/30 07:30:36;;;;;;;21.85;3.25;;;20.10;99.90;;;;;;4039002;29;20238;-93
2023/07/30 07:32:37;;;;;;;21.35;3.42;;;20.00;99.90;;;;;;4039047;29;20658;-93
2023/07/30 07:34:38;;;;;;;18.83;3.33;;;20.10;99.90;;;;;;4071654;28;20192;-95
2023/07/30 07:36:39;;;;;;;17.73;3.38;;;20.00;99.90;;;;;;4039590;29;20334;-93
2023/07/30 07:38:52;;;;;;;22.13;3.17;;;19.90;99.90;;;;;;4054183;29;20631;-93
2023/07/30 07:40:53;;;;;;;22.55;3.55;;;20.20;99.90;;;;;;4038670;29;20276;-94
2023/07/30 07:42:55;;;;;;;19.48;3.00;;;20.30;99.90;;;;;;4054607;29;20204;-95
2023/07/30 07:44:56;;;;;;;23.95;3.35;;;20.30;99.90;;;;;;4038847;29;20185;-94
2023/07/30 07:46:57;;;;;;;22.73;3.45;;;20.50;99.90;;;;;;4070222;29;20240;-94
2023/07/30 07:48:57;;;;;;;19.73;2.90;;;20.40;99.90;;;;;;4038995;29;20594;-94
2023/07/30 07:50:58;;;;;;;20.40;2.90;;;19.90;99.90;;;;;;4069717;29;20187;-95
2023/07/30 07:52:59;;;;;;;19.27;2.83;;;20.00;99.90;;;;;;4054487;29;20192;-94
2023/07/30 07:55:00;;;;;;;23.13;3.17;;;20.10;99.90;;;;;;4054048;29;20184;-93
2023/07/30 07:57:01;;;;;;;14.70;2.10;;;20.40;99.90;;;;;;4038564;29;20201;-95
2023/07/30 07:59:01;;;;;;;15.15;2.50;;;20.60;99.90;;;;;;4069932;29;20208;-92
2023/07/30 08:01:03;;;;;;;21.17;3.03;;;20.20;99.90;;;;;;4069726;29;20240;-92
2023/07/30 08:03:04;;;;;;;15.88;2.80;;;20.30;99.90;;;;;;4054701;29;20622;-93
2023/07/30 08:05:04;;;;;;;16.95;2.70;;;20.50;99.90;;;;;;4038688;29;20189;-94
2023/07/30 08:07:05;;;;;;;15.52;2.80;;;20.70;99.90;;;;;;4038501;29;20753;-94
2023/07/30 08:09:06;;;;;;;21.35;2.83;;;20.90;99.90;;;;;;4039283;29;20213;-93
2023/07/30 08:11:08;;;;;;;21.17;3.28;;;20.70;99.90;;;;;;4038498;29;20189;-94
2023/07/30 08:13:10;;;;;;;19.58;2.80;;;20.50;99.90;;;;;;4069536;29;20196;-94
2023/07/30 08:15:11;;;;;;;17.20;3.00;;;20.80;99.90;;;;;;4038108;29;20185;-95
2023/07/30 08:17:11;;;;;;;20.75;2.72;;;21.10;99.90;;;;;;4069614;29;20196;-93
2023/07/30 08:19:12;;;;;;;19.13;2.83;;;21.60;99.90;;;;;;4037782;29;20205;-94
2023/07/30 08:21:13;;;;;;;18.92;2.63;;;21.70;99.90;;;;;;4054036;29;20317;-94
2023/07/30 08:23:14;;;;;;;13.23;2.15;;;21.50;99.90;;;;;;4038212;29;20217;-95
2023/07/30 08:25:15;;;;;;;21.77;3.30;;;21.60;99.90;;;;;;4054127;29;20253;-93
2023/07/30 08:27:15;;;;;;;20.42;2.85;;;21.50;99.90;;;;;;4038869;29;20216;-95
2023/07/30 08:29:16;;;;;;;20.70;2.75;;;21.40;99.90;;;;;;4070670;29;20208;-94
2023/07/30 08:31:17;;;;;;;20.95;2.88;;;21.10;99.90;;;;;;4038191;29;20174;-93
2023/07/30 08:33:18;;;;;;;15.45;2.85;;;20.90;99.90;;;;;;4037825;29;20190;-93
2023/07/30 08:35:18;;;;;;;15.45;2.92;;;20.80;99.90;;;;;;4037992;29;20194;-94
2023/07/30 08:37:19;;;;;;;15.45;3.03;;;20.60;99.90;;;;;;4069264;29;20180;-93
2023/07/30 08:39:20;;;;;;;18.75;2.67;;;20.40;99.90;;;;;;4040915;29;20232;-95
2023/07/30 08:41:21;;;;;;;17.08;3.03;;;20.20;99.90;;;;;;4038206;29;20188;-95
2023/07/30 08:43:21;;;;;;;14.50;2.53;;;20.40;99.90;;;;;;4037995;29;20305;-94
2023/07/30 08:45:22;;;;;;;19.83;3.03;;;20.70;99.90;;;;;;4038704;29;20632;-94
2023/07/30 08:47:23;;;;;;;12.82;2.40;;;20.80;99.90;;;;;;4038332;29;20219;-94
2023/07/30 08:49:24;;;;;;;18.63;2.47;;;21.10;99.90;;;;;;4037924;29;20216;-94
2023/07/30 08:51:26;;;;;;;16.95;2.60;;;21.00;99.90;;;;;;4069092;29;20173;-94
2023/07/30 08:53:26;;;;;;;17.75;2.58;;;21.00;99.90;;;;;;4053253;29;20213;-94
2023/07/30 08:55:29;;;;;;;13.38;2.10;;;21.20;99.90;;;;;;4038164;29;20238;-95
2023/07/30 08:57:30;;;;;;;20.20;2.50;;;21.20;99.90;;;;;;4053398;29;20720;-94
2023/07/30 08:59:37;;;;;;;13.52;2.20;;;20.70;99.90;;;;;;4037913;29;20197;-94
2023/07/30 09:01:40;;;;;;;15.98;2.92;;;21.10;99.90;;;;;;4037927;29;20190;-93
2023/07/30 09:03:41;;;;;;;17.85;2.60;;;21.40;99.90;;;;;;4022359;29;20222;-95
2023/07/30 09:05:42;;;;;;;16.90;2.80;;;21.50;99.90;;;;;;4022430;29;20200;-94
2023/07/30 09:07:42;;;;;;;16.23;2.90;;;21.30;99.90;;;;;;4022288;29;20194;-93
2023/07/30 09:09:45;;;;;;;11.70;2.83;;;20.80;99.90;;;;;;4037511;29;20766;-94
2023/07/30 09:11:53;;;;;;;15.32;2.38;;;20.90;99.90;;;;;;4022690;29;20652;-94
2023/07/30 09:13:57;;;;;;;13.63;2.20;;;20.40;99.90;;;;;;4022734;29;20273;-94
2023/07/30 09:15:58;;;;;;;16.90;2.50;;;20.10;99.90;;;;;;4022270;29;20221;-93
2023/07/30 09:18:00;;;;;;;20.95;1.92;;;20.00;99.90;;;;;;4037454;29;20246;-94
2023/07/30 09:20:03;;;;;;;15.27;2.45;;;20.10;99.90;;;;;;4022043;29;20289;-94
2023/07/30 09:22:06;;;;;;;12.68;2.53;;;19.90;99.90;;;;;;4054496;29;20181;-94
2023/07/30 09:24:07;;;;;;;13.88;2.38;;;20.00;99.90;;;;;;4052829;29;20248;-94
2023/07/30 09:26:08;;;;;;;21.23;2.45;;;20.10;99.90;;;;;;4037384;29;20734;-95
2023/07/30 09:28:11;;;;;;;18.98;2.75;;;20.20;99.90;;;;;;4037566;29;20647;-95
2023/07/30 09:30:11;;;;;;;13.57;2.05;;;20.20;99.90;;;;;;4021454;29;20195;-92
2023/07/30 09:32:12;;;;;;;8.23;1.52;;;19.90;99.90;;;;;;4037530;29;20197;-93
2023/07/30 09:34:18;;;;;;;7.78;1.40;;;19.80;99.90;;;;;;4053259;29;20188;-92
2023/07/30 09:36:19;;;;;;;7.60;2.03;;;20.00;99.90;;;;;;4037719;29;20186;-92
2023/07/30 09:38:20;;;;;;;11.63;1.77;;;20.10;99.90;;;;;;4037583;29;20245;-94
2023/07/30 09:40:31;;;;;;;14.32;2.63;;;19.90;99.90;;;;;;4052671;29;20208;-93
2023/07/30 09:42:35;;;;;;;13.57;2.00;;;19.50;99.90;;;;;;4037374;29;20201;-93
2023/07/30 09:44:38;;;;;;;13.57;2.35;;;19.40;99.90;;;;;;4021639;29;20222;-94
2023/07/30 09:46:47;;;;;;;13.05;1.95;;;19.40;99.90;;;;;;4052784;29;20208;-95
2023/07/30 09:48:48;;;;;;;14.15;1.83;;;19.10;99.90;;;;;;4037266;29;20229;-94
2023/07/30 09:50:49;;;;;;;11.43;2.20;;;19.00;99.90;;;;;;4053157;29;20181;-94
2023/07/30 09:52:50;;;;;;;19.48;2.28;;;19.10;99.90;;;;;;4037272;29;20274;-94
2023/07/30 09:54:52;;;;;;;11.10;2.03;;;19.20;99.90;;;;;;4037348;29;20193;-92
2023/07/30 09:56:53;;;;;;;25.13;3.25;;;19.40;99.90;;;;;;4037192;29;20185;-94
2023/07/30 09:58:54;;;;;;;21.35;2.92;;;19.50;99.90;;;;;;4052500;29;20261;-94
2023/07/30 10:00:58;;;;;;;8.52;1.85;;;19.80;99.90;;;;;;4037122;29;20174;-94
2023/07/30 10:03:01;;;;;;;13.15;2.40;;;20.20;99.90;;;;;;4052432;29;20189;-94
2023/07/30 10:05:06;;;;;;;13.02;2.10;;;20.80;99.90;;;;;;4037261;29;20671;-94
2023/07/30 10:07:14;;;;;;;13.63;2.08;;;21.50;99.90;;;;;;4021792;29;20308;-94
2023/07/30 10:09:19;;;;;;;12.35;2.00;;;22.20;99.90;;;;;;4036836;29;20205;-94
2023/07/30 10:11:21;;;;;;;14.05;2.53;;;22.90;99.90;;;;;;4021794;29;20247;-93
2023/07/30 10:13:23;;;;;;;12.38;2.15;;;23.70;99.90;;;;;;4021628;29;20186;-93
2023/07/30 10:15:24;;;;;;;11.63;1.92;;;24.30;99.90;;;;;;4021348;29;20242;-93
2023/07/30 10:17:25;;;;;;;13.07;2.33;;;24.80;99.90;;;;;;4022056;29;20559;-93
2023/07/30 10:19:27;;;;;;;14.90;2.10;;;25.10;99.90;;;;;;4021654;29;20202;-92
2023/07/30 10:21:31;;;;;;;22.58;2.60;;;25.10;99.90;;;;;;4037227;29;20228;-92
2023/07/30 10:23:33;;;;;;;15.23;2.30;;;25.20;99.90;;;;;;4037291;29;20350;-93
2023/07/30 10:25:46;;;;;;;16.67;2.80;;;24.20;99.90;;;;;;4037376;29;20186;-93
2023/07/30 10:27:50;;;;;;;17.25;2.63;;;23.90;99.90;;;;;;4036981;29;20209;-92